Time;durP1;ratioP1;P1;durP2;ratioP2;P2;SDS_P1;SDS_P2;PMS_P1;PMS_P2;Temp;Humidity;BMP_temperature;BMP_pressure;BME280_temperature;BME280_humidity;BME280_pressure;Samples;Min_cycle;Max_cycle;Signal;HPM_P1;HPM_P2
2023/07/15 00:01:36;;;;;;;8.20;2.38;;;45.50;29.80;;;;;;4939195;29;20011;-64
2023/07/15 00:04:03;;;;;;;10.18;2.20;;;45.40;29.50;;;;;;4934324;29;20016;-63
2023/07/15 00:06:29;;;;;;;23.45;2.65;;;45.30;29.40;;;;;;4932112;29;20371;-65
2023/07/15 00:08:56;;;;;;;11.13;2.13;;;45.30;30.20;;;;;;4936659;29;20023;-64
2023/07/15 00:11:45;;;;;;;16.25;2.60;;;45.20;29.60;;;;;;4938945;29;20046;-64
2023/07/15 00:14:22;;;;;;;16.92;2.40;;;45.30;30.00;;;;;;4935664;29;20039;-65
2023/07/15 00:16:51;;;;;;;22.50;3.72;;;45.20;29.90;;;;;;4941358;29;20075;-63
2023/07/15 00:19:19;;;;;;;22.92;2.92;;;45.20;29.90;;;;;;4942221;29;20085;-64
2023/07/15 00:21:46;;;;;;;14.05;2.90;;;45.10;29.80;;;;;;4939374;29;20451;-63
2023/07/15 00:24:13;;;;;;;10.88;2.45;;;45.00;30.20;;;;;;4940902;29;20098;-64
2023/07/15 00:26:40;;;;;;;9.52;2.30;;;44.90;30.00;;;;;;4943606;29;20055;-65
2023/07/15 00:29:07;;;;;;;9.45;2.00;;;44.90;30.00;;;;;;4940331;29;20099;-64
2023/07/15 00:31:36;;;;;;;9.82;2.05;;;44.80;29.90;;;;;;4940730;29;20024;-63
2023/07/15 00:34:02;;;;;;;11.95;2.50;;;44.70;29.80;;;;;;4944107;29;20022;-66
2023/07/15 00:36:32;;;;;;;9.20;2.00;;;44.70;30.00;;;;;;4934882;29;20052;-66
2023/07/15 00:38:58;;;;;;;13.82;2.45;;;44.70;29.70;;;;;;4937464;29;20355;-64
2023/07/15 00:41:29;;;;;;;14.38;2.03;;;44.60;29.50;;;;;;4937965;29;20031;-67
2023/07/15 00:43:58;;;;;;;17.88;3.00;;;44.50;29.70;;;;;;4939787;29;20019;-65
2023/07/15 00:46:46;;;;;;;11.13;2.20;;;44.50;29.60;;;;;;4936641;29;20490;-65
2023/07/15 00:49:17;;;;;;;10.70;2.10;;;44.50;29.60;;;;;;4940606;29;20470;-64
2023/07/15 00:51:51;;;;;;;8.15;2.10;;;44.40;30.10;;;;;;4940520;29;20434;-64
2023/07/15 00:54:18;;;;;;;13.00;2.10;;;44.40;30.50;;;;;;4939164;29;20080;-64
2023/07/15 00:56:45;;;;;;;13.55;2.20;;;44.40;30.40;;;;;;4934464;29;20442;-66
2023/07/15 00:59:15;;;;;;;20.25;3.05;;;44.30;29.90;;;;;;4941568;29;20019;-65
2023/07/15 01:01:42;;;;;;;12.93;2.78;;;44.20;30.00;;;;;;4940167;29;20109;-64
2023/07/15 01:04:09;;;;;;;9.55;2.28;;;44.20;30.70;;;;;;4940656;29;20482;-65
2023/07/15 01:06:35;;;;;;;17.70;2.50;;;44.10;30.30;;;;;;4941607;29;20509;-65
2023/07/15 01:09:08;;;;;;;17.45;2.28;;;44.10;30.80;;;;;;4940692;29;20027;-65
2023/07/15 01:11:34;;;;;;;14.93;2.47;;;44.00;30.50;;;;;;4934819;29;20106;-64
2023/07/15 01:14:01;;;;;;;19.65;2.65;;;44.00;31.30;;;;;;4940457;29;20048;-65
2023/07/15 01:16:30;;;;;;;11.35;2.10;;;43.90;30.70;;;;;;4939666;29;20102;-63
2023/07/15 01:18:57;;;;;;;14.40;2.30;;;43.90;30.70;;;;;;4945679;29;20106;-63
2023/07/15 01:21:25;;;;;;;18.23;2.70;;;43.80;30.70;;;;;;4940619;29;20478;-65
2023/07/15 01:23:52;;;;;;;15.27;2.53;;;43.80;31.00;;;;;;4922062;29;20382;-66
2023/07/15 01:26:20;;;;;;;11.63;2.33;;;43.70;31.00;;;;;;4942909;29;20127;-65
2023/07/15 01:28:47;;;;;;;10.90;2.50;;;43.70;31.70;;;;;;4938611;29;20479;-65
2023/07/15 01:31:14;;;;;;;10.95;2.60;;;43.60;31.30;;;;;;4938152;29;20030;-65
2023/07/15 01:33:41;;;;;;;15.23;2.70;;;43.60;31.10;;;;;;4940604;29;20015;-63
2023/07/15 01:36:07;;;;;;;19.23;3.38;;;43.50;31.50;;;;;;4938717;29;20034;-64
2023/07/15 01:38:33;;;;;;;13.93;2.70;;;43.40;31.80;;;;;;4936481;29;20054;-64
2023/07/15 01:41:00;;;;;;;15.27;3.20;;;43.40;31.30;;;;;;4936590;29;20033;-63
2023/07/15 01:43:26;;;;;;;18.15;2.92;;;43.40;33.10;;;;;;4939762;29;20030;-64
2023/07/15 01:45:53;;;;;;;19.38;2.80;;;43.40;32.70;;;;;;4939420;29;20036;-64
2023/07/15 01:48:19;;;;;;;15.40;2.72;;;43.30;32.30;;;;;;4936895;29;20023;-64
2023/07/15 01:50:47;;;;;;;12.85;2.83;;;43.20;32.00;;;;;;4938082;29;20126;-65
2023/07/15 01:53:14;;;;;;;17.92;2.53;;;43.20;32.30;;;;;;4938051;29;20058;-65
2023/07/15 01:55:41;;;;;;;14.82;2.53;;;43.50;31.80;;;;;;4937612;29;20083;-66
2023/07/15 01:58:07;;;;;;;15.10;3.15;;;43.80;31.30;;;;;;4940419;29;20023;-66
2023/07/15 02:00:34;;;;;;;28.00;2.70;;;43.60;31.00;;;;;;4940280;29;20019;-65
2023/07/15 02:03:00;;;;;;;17.65;3.10;;;43.40;31.40;;;;;;4938504;29;20027;-65
2023/07/15 02:05:26;;;;;;;12.18;2.40;;;43.20;31.80;;;;;;4942617;29;20114;-65
2023/07/15 02:07:53;;;;;;;11.40;2.45;;;43.10;32.00;;;;;;4936494;29;20031;-63
2023/07/15 02:10:19;;;;;;;16.75;2.67;;;43.00;32.20;;;;;;4939049;29;20023;-64
2023/07/15 02:12:46;;;;;;;21.40;3.10;;;43.00;32.50;;;;;;4936926;29;20039;-65
2023/07/15 02:15:12;;;;;;;23.10;3.38;;;42.80;32.20;;;;;;4935887;29;20019;-64
2023/07/15 02:17:39;;;;;;;14.55;2.42;;;42.70;32.40;;;;;;4937878;29;20038;-64
2023/07/15 02:20:07;;;;;;;19.40;2.80;;;42.60;32.70;;;;;;4942524;29;20066;-65
2023/07/15 02:22:34;;;;;;;17.42;3.38;;;42.50;32.70;;;;;;4938060;29;20057;-66
2023/07/15 02:25:00;;;;;;;15.15;2.72;;;42.50;32.70;;;;;;4937230;29;20123;-64
2023/07/15 02:27:27;;;;;;;13.40;2.38;;;42.40;32.80;;;;;;4939241;29;20019;-66
2023/07/15 02:29:53;;;;;;;22.85;3.50;;;42.30;32.90;;;;;;4934624;29;20023;-68
2023/07/15 02:32:41;;;;;;;24.92;3.70;;;42.20;32.80;;;;;;4933567;29;20440;-65
2023/07/15 02:35:13;;;;;;;18.65;3.20;;;42.20;33.20;;;;;;4932906;29;20119;-65
2023/07/15 02:37:42;;;;;;;16.63;3.08;;;42.10;33.40;;;;;;4934955;29;20062;-67
2023/07/15 02:40:10;;;;;;;12.18;3.20;;;42.00;33.50;;;;;;4939937;29;20405;-67
2023/07/15 02:42:37;;;;;;;19.92;3.72;;;41.90;33.40;;;;;;4938632;29;20491;-64
2023/07/15 02:45:06;;;;;;;13.60;3.13;;;41.80;33.60;;;;;;4937952;29;20043;-64
2023/07/15 02:47:33;;;;;;;17.42;3.50;;;41.70;33.60;;;;;;4937492;29;20482;-66
2023/07/15 02:50:08;;;;;;;23.58;4.18;;;41.60;34.30;;;;;;4938666;29;20119;-64
2023/07/15 02:52:35;;;;;;;18.98;3.70;;;41.60;34.00;;;;;;4935738;29;20091;-65
2023/07/15 02:55:04;;;;;;;16.00;3.58;;;41.50;34.00;;;;;;4937118;29;20111;-63
2023/07/15 02:57:31;;;;;;;20.17;3.42;;;41.40;33.90;;;;;;4936661;29;20095;-66
2023/07/15 02:59:57;;;;;;;13.13;4.10;;;41.40;34.20;;;;;;4939967;29;20135;-64
2023/07/15 03:02:24;;;;;;;18.85;3.55;;;41.30;34.60;;;;;;4940537;29;20098;-65
2023/07/15 03:04:51;;;;;;;15.73;3.90;;;41.20;34.90;;;;;;4943508;29;20054;-63
2023/07/15 03:07:19;;;;;;;16.83;4.00;;;41.20;34.70;;;;;;4938272;29;20020;-64
2023/07/15 03:09:45;;;;;;;22.15;4.30;;;41.00;34.60;;;;;;4936697;29;20490;-67
2023/07/15 03:12:12;;;;;;;20.42;4.05;;;40.90;34.60;;;;;;4937452;29;20027;-65
2023/07/15 03:14:41;;;;;;;29.75;5.10;;;40.90;34.90;;;;;;4939291;29;20023;-65
2023/07/15 03:17:09;;;;;;;31.27;5.85;;;40.80;34.70;;;;;;4933712;29;20015;-66
2023/07/15 03:19:37;;;;;;;38.72;5.95;;;40.80;34.70;;;;;;4941284;29;20027;-66
2023/07/15 03:22:05;;;;;;;34.45;4.95;;;40.80;34.90;;;;;;4933148;29;20541;-65
2023/07/15 03:24:32;;;;;;;33.80;5.10;;;40.70;35.00;;;;;;4933814;29;20474;-65
2023/07/15 03:26:59;;;;;;;40.40;5.53;;;40.60;35.30;;;;;;4933309;29;20020;-67
2023/07/15 03:29:25;;;;;;;29.95;4.57;;;40.60;35.40;;;;;;4933079;29;20024;-66
2023/07/15 03:31:52;;;;;;;41.47;4.70;;;40.50;35.50;;;;;;4936417;29;20053;-65
2023/07/15 03:34:19;;;;;;;54.15;5.50;;;40.60;35.70;;;;;;4937521;29;20020;-66
2023/07/15 03:36:45;;;;;;;46.47;6.00;;;40.60;35.50;;;;;;4939687;29;20430;-64
2023/07/15 03:39:12;;;;;;;37.05;5.70;;;40.60;36.00;;;;;;4939166;29;20441;-67
2023/07/15 03:41:38;;;;;;;54.35;6.13;;;40.60;36.60;;;;;;4934107;29;20019;-65
2023/07/15 03:44:05;;;;;;;30.30;4.75;;;40.60;37.00;;;;;;4934208;28;20027;-65
2023/07/15 03:46:31;;;;;;;29.00;4.18;;;40.60;37.20;;;;;;4930465;29;20027;-65
2023/07/15 03:48:58;;;;;;;27.10;4.65;;;40.60;37.50;;;;;;4933612;29;20015;-65
2023/07/15 03:51:24;;;;;;;25.92;4.55;;;40.50;37.70;;;;;;4933120;29;20023;-65
2023/07/15 03:53:50;;;;;;;23.83;4.93;;;40.50;37.80;;;;;;4933043;29;20537;-64
2023/07/15 03:56:17;;;;;;;33.75;4.57;;;40.40;37.90;;;;;;4933866;29;20110;-65
2023/07/15 03:58:43;;;;;;;24.98;4.15;;;40.40;38.10;;;;;;4934458;29;20020;-64
2023/07/15 04:01:10;;;;;;;29.10;7.03;;;40.30;38.30;;;;;;4933964;29;20600;-64
2023/07/15 04:03:36;;;;;;;49.33;5.53;;;40.30;38.60;;;;;;4940758;29;20101;-65
2023/07/15 04:06:03;;;;;;;31.83;5.20;;;40.20;38.70;;;;;;4939286;29;20119;-63
2023/07/15 04:08:29;;;;;;;24.77;4.35;;;40.20;38.80;;;;;;4936274;29;20067;-66
2023/07/15 04:10:56;;;;;;;23.80;4.60;;;40.10;38.90;;;;;;4937996;29;20142;-65
2023/07/15 04:13:22;;;;;;;22.75;4.78;;;40.00;39.00;;;;;;4935942;29;20083;-64
2023/07/15 04:15:48;;;;;;;20.25;4.80;;;40.00;38.90;;;;;;4935918;29;20023;-66
2023/07/15 04:18:16;;;;;;;22.00;5.30;;;39.90;39.10;;;;;;4938696;29;20019;-64
2023/07/15 04:20:43;;;;;;;19.42;5.03;;;39.80;39.50;;;;;;4935703;29;20019;-65
2023/07/15 04:23:09;;;;;;;26.17;4.20;;;39.70;39.20;;;;;;4940346;29;20069;-66
2023/07/15 04:25:35;;;;;;;15.77;3.80;;;39.60;39.70;;;;;;4939108;29;20093;-66
2023/07/15 04:28:02;;;;;;;18.70;3.72;;;39.50;39.80;;;;;;4936380;29;20008;-68
2023/07/15 04:30:28;;;;;;;31.00;3.97;;;39.40;39.60;;;;;;4935100;29;20016;-65
2023/07/15 04:32:55;;;;;;;18.17;3.05;;;39.40;39.60;;;;;;4935816;29;20118;-64
2023/07/15 04:35:21;;;;;;;22.67;4.20;;;39.30;39.50;;;;;;4938199;29;20028;-66
2023/07/15 04:37:48;;;;;;;25.55;4.13;;;39.30;39.20;;;;;;4934788;29;20055;-64
2023/07/15 04:40:14;;;;;;;19.88;3.80;;;39.20;39.10;;;;;;4921442;29;20483;-66
2023/07/15 04:42:40;;;;;;;14.57;3.25;;;39.20;38.90;;;;;;4933657;29;20034;-65
2023/07/15 04:45:07;;;;;;;15.93;3.67;;;39.10;38.60;;;;;;4935588;29;20054;-65
2023/07/15 04:47:34;;;;;;;18.55;3.40;;;39.10;38.40;;;;;;4933998;29;20406;-65
2023/07/15 04:50:01;;;;;;;16.67;2.97;;;39.00;38.30;;;;;;4938845;29;20027;-64
2023/07/15 04:52:27;;;;;;;13.95;3.05;;;39.00;38.10;;;;;;4936024;29;20103;-65
2023/07/15 04:54:53;;;;;;;16.48;3.78;;;38.90;37.90;;;;;;4933220;29;20474;-64
2023/07/15 04:57:20;;;;;;;17.85;3.20;;;38.90;38.10;;;;;;4937585;29;20785;-65
2023/07/15 04:59:48;;;;;;;19.92;3.53;;;38.90;37.90;;;;;;4931531;29;20378;-66
2023/07/15 05:02:15;;;;;;;15.93;3.03;;;38.80;38.00;;;;;;4936096;29;20027;-65
2023/07/15 05:04:41;;;;;;;24.60;3.00;;;38.70;37.90;;;;;;4934782;29;20031;-65
2023/07/15 05:07:07;;;;;;;10.38;3.15;;;38.80;37.80;;;;;;4942669;29;20094;-66
2023/07/15 05:09:34;;;;;;;21.85;3.60;;;38.70;37.80;;;;;;4940474;29;20049;-64
2023/07/15 05:12:00;;;;;;;17.80;3.40;;;38.70;37.70;;;;;;4940214;29;20027;-66
2023/07/15 05:14:27;;;;;;;28.58;4.15;;;38.60;37.60;;;;;;4940453;29;20070;-64
2023/07/15 05:16:53;;;;;;;21.85;3.30;;;38.70;37.60;;;;;;4937635;29;20349;-62
2023/07/15 05:19:19;;;;;;;31.33;4.25;;;38.60;37.50;;;;;;4938941;29;20016;-65
2023/07/15 05:21:46;;;;;;;28.10;3.58;;;38.60;37.60;;;;;;4940334;29;20103;-65
2023/07/15 05:24:12;;;;;;;27.63;4.18;;;38.60;37.60;;;;;;4940018;29;20106;-65
2023/07/15 05:26:38;;;;;;;28.63;3.63;;;38.60;37.60;;;;;;4938673;29;20021;-66
2023/07/15 05:29:07;;;;;;;24.90;3.65;;;38.50;37.50;;;;;;4937148;29;20483;-67
2023/07/15 05:31:34;;;;;;;27.42;4.47;;;38.50;37.50;;;;;;4939824;29;20055;-65
2023/07/15 05:34:00;;;;;;;25.05;3.33;;;38.40;37.60;;;;;;4939849;29;20030;-65
2023/07/15 05:36:27;;;;;;;16.38;3.42;;;38.50;37.70;;;;;;4934612;29;20034;-66
2023/07/15 05:38:53;;;;;;;13.80;4.13;;;38.40;37.80;;;;;;4938264;29;20035;-64
2023/07/15 05:41:19;;;;;;;18.38;4.22;;;38.30;38.00;;;;;;4936399;29;20020;-65
2023/07/15 05:43:46;;;;;;;23.73;3.65;;;38.30;39.00;;;;;;4942188;29;20023;-66
2023/07/15 05:46:12;;;;;;;22.45;3.83;;;38.10;38.50;;;;;;4939831;29;20847;-65
2023/07/15 05:48:38;;;;;;;19.25;3.38;;;38.00;38.70;;;;;;4938894;29;20035;-65
2023/07/15 05:51:05;;;;;;;22.23;3.78;;;37.90;38.40;;;;;;4936135;29;20024;-65
2023/07/15 05:53:32;;;;;;;21.52;3.20;;;37.90;38.60;;;;;;4934233;29;20049;-64
2023/07/15 05:55:58;;;;;;;21.17;3.80;;;37.80;39.40;;;;;;4939707;29;20020;-66
2023/07/15 05:58:26;;;;;;;15.63;3.55;;;37.80;39.40;;;;;;4940040;29;20062;-66
2023/07/15 06:00:52;;;;;;;13.00;2.88;;;37.80;39.10;;;;;;4940088;29;20048;-65
2023/07/15 06:03:19;;;;;;;22.95;12.25;;;37.70;39.50;;;;;;4940485;29;20057;-66
2023/07/15 06:05:45;;;;;;;31.67;8.48;;;37.70;39.50;;;;;;4939392;29;20056;-67
2023/07/15 06:08:11;;;;;;;15.82;4.50;;;37.70;39.00;;;;;;4934768;29;20425;-67
2023/07/15 06:10:38;;;;;;;32.22;4.38;;;37.70;38.90;;;;;;4938892;29;20020;-67
2023/07/15 06:13:04;;;;;;;32.00;4.85;;;37.70;39.10;;;;;;4940587;29;20058;-65
2023/07/15 06:15:31;;;;;;;22.23;3.95;;;37.70;39.20;;;;;;4937264;29;20401;-68
2023/07/15 06:17:59;;;;;;;38.05;5.53;;;37.70;39.30;;;;;;4939211;29;21497;-66
2023/07/15 06:20:25;;;;;;;19.88;4.00;;;37.70;39.20;;;;;;4940201;29;20350;-66
2023/07/15 06:22:51;;;;;;;32.92;4.70;;;37.70;39.90;;;;;;4936626;29;20081;-66
2023/07/15 06:25:18;;;;;;;20.73;4.38;;;37.70;39.80;;;;;;4937796;29;20070;-66
2023/07/15 06:27:44;;;;;;;26.13;4.18;;;37.60;40.00;;;;;;4937221;29;20033;-65
2023/07/15 06:30:11;;;;;;;23.75;4.60;;;37.60;40.40;;;;;;4942759;29;20795;-66
2023/07/15 06:32:38;;;;;;;19.92;3.50;;;37.50;40.30;;;;;;4940201;29;20026;-67
2023/07/15 06:35:04;;;;;;;28.58;4.28;;;37.50;40.60;;;;;;4936316;29;20066;-66
2023/07/15 06:37:34;;;;;;;14.45;3.53;;;37.50;41.10;;;;;;4936778;29;20528;-65
2023/07/15 06:40:00;;;;;;;25.08;4.43;;;37.40;41.00;;;;;;4945016;29;20534;-66
2023/07/15 06:42:26;;;;;;;19.13;3.47;;;37.40;40.60;;;;;;4939078;29;20077;-70
2023/07/15 06:44:53;;;;;;;23.00;3.55;;;37.40;40.70;;;;;;4940805;29;20642;-67
2023/07/15 06:47:19;;;;;;;19.40;3.78;;;37.30;40.80;;;;;;4935926;29;20076;-67
2023/07/15 06:49:45;;;;;;;25.70;3.75;;;37.20;40.90;;;;;;4936764;29;20056;-67
2023/07/15 06:52:12;;;;;;;15.48;3.50;;;37.30;42.10;;;;;;4938766;29;20050;-66
2023/07/15 06:54:38;;;;;;;17.67;3.60;;;37.20;42.20;;;;;;4939126;29;20133;-66
2023/07/15 06:57:05;;;;;;;16.58;3.10;;;37.10;42.20;;;;;;4937975;29;20057;-66
2023/07/15 06:59:31;;;;;;;13.77;3.47;;;37.10;42.50;;;;;;4939134;29;20047;-65
2023/07/15 07:01:58;;;;;;;14.30;3.20;;;37.00;43.10;;;;;;4940889;29;20096;-65
2023/07/15 07:04:24;;;;;;;17.80;3.40;;;36.90;42.90;;;;;;4941826;29;20046;-66
2023/07/15 07:06:50;;;;;;;18.95;3.70;;;36.90;43.00;;;;;;4938215;29;20582;-65
2023/07/15 07:09:17;;;;;;;18.60;3.28;;;36.90;43.00;;;;;;4939144;29;20050;-66
2023/07/15 07:11:43;;;;;;;19.25;3.60;;;36.80;43.10;;;;;;4934134;29;20057;-65
2023/07/15 07:14:10;;;;;;;14.23;3.40;;;36.80;43.50;;;;;;4935457;29;20049;-67
2023/07/15 07:16:36;;;;;;;77.43;6.43;;;36.70;43.60;;;;;;4939134;29;20051;-65
2023/07/15 07:19:02;;;;;;;99.10;6.88;;;36.70;44.10;;;;;;4931297;29;20560;-65
2023/07/15 07:21:29;;;;;;;69.78;5.95;;;36.60;44.10;;;;;;4934273;29;20055;-67
2023/07/15 07:23:55;;;;;;;28.25;3.97;;;36.60;44.40;;;;;;4936562;29;20082;-66
2023/07/15 07:26:22;;;;;;;24.23;4.28;;;36.60;44.50;;;;;;4935834;29;20077;-66
2023/07/15 07:28:48;;;;;;;19.25;3.80;;;36.60;44.70;;;;;;4936679;29;20126;-65
2023/07/15 07:31:17;;;;;;;15.93;3.63;;;36.50;44.30;;;;;;4938336;29;20062;-65
2023/07/15 07:33:44;;;;;;;24.10;4.10;;;36.40;44.50;;;;;;4934524;29;20065;-65
2023/07/15 07:36:11;;;;;;;18.67;3.65;;;36.50;44.60;;;;;;4937207;29;20055;-63
2023/07/15 07:38:37;;;;;;;13.52;3.70;;;36.40;44.80;;;;;;4937871;29;20063;-64
2023/07/15 07:41:05;;;;;;;18.92;3.47;;;36.40;45.00;;;;;;4937083;29;20482;-65
2023/07/15 07:43:33;;;;;;;12.00;3.47;;;36.40;45.10;;;;;;4933889;29;20060;-67
2023/07/15 07:46:00;;;;;;;19.13;3.20;;;36.30;45.40;;;;;;4936694;29;20597;-65
2023/07/15 07:48:27;;;;;;;17.55;3.60;;;36.30;45.70;;;;;;4935552;29;20056;-66
2023/07/15 07:50:55;;;;;;;20.23;3.58;;;36.30;45.80;;;;;;4935639;29;20044;-66
2023/07/15 07:53:23;;;;;;;19.10;3.97;;;36.20;45.50;;;;;;4941460;29;20522;-65
2023/07/15 07:55:50;;;;;;;14.50;4.38;;;36.20;45.80;;;;;;4934254;29;20540;-68
2023/07/15 07:58:17;;;;;;;22.80;3.97;;;36.10;46.20;;;;;;4936012;29;20067;-67
2023/07/15 08:00:44;;;;;;;11.68;3.50;;;36.10;46.30;;;;;;4937288;29;20116;-65
2023/07/15 08:03:10;;;;;;;18.48;3.70;;;36.10;46.20;;;;;;4932744;29;20057;-67
2023/07/15 08:05:46;;;;;;;25.50;3.55;;;36.00;46.30;;;;;;4936650;29;20067;-66
2023/07/15 08:08:13;;;;;;;22.17;3.78;;;36.00;46.40;;;;;;4931873;29;20510;-67
2023/07/15 08:10:40;;;;;;;20.80;4.60;;;35.90;46.60;;;;;;4935531;29;20107;-66
2023/07/15 08:13:07;;;;;;;14.85;4.57;;;35.90;46.80;;;;;;4939514;29;20065;-66
2023/07/15 08:15:35;;;;;;;20.67;4.65;;;35.90;46.80;;;;;;4937816;29;20050;-67
2023/07/15 08:18:05;;;;;;;21.23;4.97;;;35.90;46.80;;;;;;4933606;29;20058;-65
2023/07/15 08:20:31;;;;;;;20.85;4.82;;;35.90;46.70;;;;;;4935569;29;20052;-67
2023/07/15 08:22:59;;;;;;;17.77;5.47;;;35.80;47.40;;;;;;4937562;29;20070;-67
2023/07/15 08:25:25;;;;;;;21.88;6.00;;;35.80;47.30;;;;;;4934277;29;20070;-65
2023/07/15 08:27:53;;;;;;;24.48;6.95;;;35.80;47.40;;;;;;4936036;29;20058;-66
2023/07/15 08:30:20;;;;;;;24.77;7.20;;;35.80;47.90;;;;;;4938307;29;20062;-66
2023/07/15 08:32:47;;;;;;;17.70;6.72;;;35.70;48.10;;;;;;4941245;29;20041;-65
2023/07/15 08:35:13;;;;;;;21.40;6.82;;;35.70;48.40;;;;;;4940767;29;20053;-67
2023/07/15 08:37:42;;;;;;;32.03;6.43;;;35.70;48.90;;;;;;4942316;29;20525;-66
2023/07/15 08:40:12;;;;;;;18.10;5.60;;;35.60;49.00;;;;;;4939827;29;20062;-66
2023/07/15 08:42:40;;;;;;;26.80;6.05;;;35.60;49.10;;;;;;4937434;29;20080;-66
2023/07/15 08:45:07;;;;;;;30.58;5.82;;;35.60;49.40;;;;;;4941456;29;20077;-65
2023/07/15 08:47:33;;;;;;;29.95;5.78;;;35.60;49.40;;;;;;4938723;29;20515;-66
2023/07/15 08:50:03;;;;;;;25.70;5.63;;;35.50;49.30;;;;;;4943764;29;20059;-64
2023/07/15 08:52:30;;;;;;;21.55;5.90;;;35.50;49.50;;;;;;4939416;29;20243;-67
2023/07/15 08:54:57;;;;;;;19.75;5.88;;;35.40;49.90;;;;;;4938903;29;20056;-66
2023/07/15 08:57:23;;;;;;;31.58;5.40;;;35.40;50.10;;;;;;4939855;29;20049;-66
2023/07/15 08:59:53;;;;;;;19.70;4.43;;;35.40;50.80;;;;;;4935727;29;20133;-65
2023/07/15 09:02:19;;;;;;;26.90;5.00;;;35.40;50.90;;;;;;4935362;29;20143;-65
2023/07/15 09:04:46;;;;;;;16.73;3.85;;;35.30;51.10;;;;;;4936739;29;21377;-66
2023/07/15 09:07:12;;;;;;;17.15;4.25;;;35.30;51.50;;;;;;4939694;29;20052;-66
2023/07/15 09:09:39;;;;;;;18.55;4.47;;;35.20;52.00;;;;;;4939038;29;20099;-65
2023/07/15 09:12:11;;;;;;;12.88;3.83;;;35.20;52.50;;;;;;4919237;29;20071;-66
2023/07/15 09:14:46;;;;;;;21.95;5.28;;;35.20;52.70;;;;;;4940864;29;20053;-66
2023/07/15 09:17:24;;;;;;;18.42;4.28;;;35.10;53.30;;;;;;4937194;29;20163;-66
2023/07/15 09:19:50;;;;;;;18.35;3.83;;;35.00;53.90;;;;;;4940211;29;20064;-65
2023/07/15 09:22:18;;;;;;;15.70;3.88;;;35.00;54.70;;;;;;4939419;29;20065;-67
2023/07/15 09:24:45;;;;;;;18.42;4.13;;;34.90;55.40;;;;;;4941926;29;20076;-65
2023/07/15 09:27:11;;;;;;;23.77;4.65;;;34.90;55.50;;;;;;4937488;29;20527;-66
2023/07/15 09:29:38;;;;;;;14.20;3.85;;;34.80;55.80;;;;;;4935254;29;20479;-66
2023/07/15 09:32:07;;;;;;;19.88;3.90;;;34.80;55.80;;;;;;4936143;29;20052;-66
2023/07/15 09:34:40;;;;;;;21.92;3.88;;;34.80;56.30;;;;;;4937975;29;20061;-67
2023/07/15 09:37:06;;;;;;;12.05;2.90;;;34.60;56.20;;;;;;4942422;29;20051;-66
2023/07/15 09:39:32;;;;;;;13.32;3.00;;;34.60;56.10;;;;;;4938662;29;20063;-66
2023/07/15 09:42:03;;;;;;;17.77;3.75;;;34.50;56.40;;;;;;4921515;29;20143;-65
2023/07/15 09:44:41;;;;;;;13.32;3.30;;;34.40;56.50;;;;;;4939382;29;20055;-66
2023/07/15 09:47:08;;;;;;;13.90;3.13;;;34.50;57.10;;;;;;4938107;29;20056;-65
2023/07/15 09:49:35;;;;;;;17.30;3.40;;;34.40;56.80;;;;;;4939103;29;20062;-65
2023/07/15 09:52:05;;;;;;;12.55;3.20;;;34.40;57.20;;;;;;4935986;29;20058;-68
2023/07/15 09:54:35;;;;;;;11.57;3.40;;;34.30;57.50;;;;;;4942602;29;20064;-66
2023/07/15 09:57:04;;;;;;;10.98;3.25;;;34.10;57.70;;;;;;4937831;29;20516;-65
2023/07/15 09:59:46;;;;;;;11.55;3.13;;;34.10;58.40;;;;;;4941966;29;20131;-65
2023/07/15 10:02:23;;;;;;;11.68;3.33;;;34.00;59.30;;;;;;4935625;29;20057;-66
2023/07/15 10:04:52;;;;;;;14.00;3.70;;;33.90;59.80;;;;;;4938618;29;20536;-66
2023/07/15 10:07:19;;;;;;;8.93;3.13;;;33.90;59.90;;;;;;4937741;29;20149;-66
2023/07/15 10:09:45;;;;;;;11.05;3.03;;;33.80;60.20;;;;;;4941971;29;20059;-65
2023/07/15 10:12:13;;;;;;;10.98;3.65;;;33.70;60.60;;;;;;4935994;29;20602;-67
2023/07/15 10:14:39;;;;;;;9.93;2.78;;;33.70;60.90;;;;;;4937762;29;20073;-67
2023/07/15 10:17:10;;;;;;;11.52;3.65;;;33.70;62.20;;;;;;4938006;29;20071;-65
2023/07/15 10:19:47;;;;;;;13.55;3.35;;;33.70;61.90;;;;;;4936784;29;20053;-65
2023/07/15 10:22:15;;;;;;;12.63;3.53;;;33.70;62.40;;;;;;4940368;29;20426;-65
2023/07/15 10:24:44;;;;;;;9.43;3.08;;;33.60;62.70;;;;;;4938700;29;20083;-66
2023/07/15 10:27:11;;;;;;;8.80;2.88;;;33.50;62.80;;;;;;4917707;29;20422;-65
2023/07/15 10:29:40;;;;;;;7.82;3.40;;;33.50;63.30;;;;;;4937414;29;20143;-66
2023/07/15 10:32:12;;;;;;;10.38;3.05;;;33.50;63.30;;;;;;4941178;29;20160;-66
2023/07/15 10:34:52;;;;;;;12.85;3.20;;;33.40;63.60;;;;;;4936717;29;20137;-66
2023/07/15 10:37:20;;;;;;;11.00;3.28;;;33.40;64.30;;;;;;4938644;29;20401;-66
2023/07/15 10:39:47;;;;;;;13.80;2.90;;;33.40;64.10;;;;;;4937734;29;20075;-65
2023/07/15 10:42:18;;;;;;;10.73;3.47;;;33.30;65.00;;;;;;4939130;29;20083;-65
2023/07/15 10:44:54;;;;;;;11.23;3.58;;;33.10;65.00;;;;;;4941808;29;20563;-66
2023/07/15 10:47:21;;;;;;;11.10;4.13;;;33.10;65.80;;;;;;4932038;29;20063;-66
2023/07/15 10:49:48;;;;;;;11.65;3.60;;;32.90;66.80;;;;;;4936544;29;20079;-66
2023/07/15 10:52:23;;;;;;;11.40;3.35;;;32.80;67.80;;;;;;4938631;28;20087;-66
2023/07/15 10:54:53;;;;;;;13.98;3.75;;;32.90;69.20;;;;;;4932757;29;20552;-66
2023/07/15 10:57:19;;;;;;;14.35;4.10;;;32.90;70.00;;;;;;4940504;29;20075;-66
2023/07/15 10:59:46;;;;;;;18.08;4.13;;;32.80;70.00;;;;;;4936898;29;20062;-65
2023/07/15 11:02:13;;;;;;;17.38;4.15;;;32.80;70.90;;;;;;4936301;29;20424;-66
2023/07/15 11:04:40;;;;;;;10.55;3.83;;;32.80;71.10;;;;;;4933054;29;20100;-65
2023/07/15 11:07:12;;;;;;;12.65;3.50;;;32.80;71.40;;;;;;4939052;29;20139;-64
2023/07/15 11:09:41;;;;;;;18.00;4.97;;;32.70;71.90;;;;;;4935549;29;20520;-66
2023/07/15 11:12:12;;;;;;;12.80;3.70;;;32.70;72.50;;;;;;4938759;29;20085;-65
2023/07/15 11:14:42;;;;;;;17.52;4.47;;;32.70;73.10;;;;;;4936859;29;20075;-65
2023/07/15 11:17:08;;;;;;;14.25;4.35;;;32.70;73.30;;;;;;4940251;29;20070;-65
2023/07/15 11:19:35;;;;;;;13.82;4.05;;;32.70;73.70;;;;;;4938915;29;20558;-66
2023/07/15 11:22:07;;;;;;;14.15;4.03;;;32.60;74.30;;;;;;4935119;29;20061;-65
2023/07/15 11:24:34;;;;;;;16.88;4.00;;;32.70;74.80;;;;;;4935990;29;20151;-64
2023/07/15 11:27:01;;;;;;;16.33;3.95;;;32.70;75.10;;;;;;4937673;29;20146;-65
2023/07/15 11:29:28;;;;;;;11.68;3.65;;;32.70;76.10;;;;;;4935198;29;20123;-67
2023/07/15 11:31:57;;;;;;;17.35;3.53;;;32.60;76.80;;;;;;4940616;29;20058;-66
2023/07/15 11:34:25;;;;;;;12.45;3.20;;;32.60;77.30;;;;;;4939067;29;20069;-64
2023/07/15 11:36:53;;;;;;;17.73;4.10;;;32.70;77.70;;;;;;4934327;29;20062;-65
2023/07/15 11:39:21;;;;;;;13.18;3.70;;;32.70;77.90;;;;;;4939066;29;20072;-66
2023/07/15 11:41:50;;;;;;;16.23;4.07;;;32.60;78.60;;;;;;4937413;29;20091;-66
2023/07/15 11:44:20;;;;;;;12.18;3.65;;;32.60;79.20;;;;;;4935967;29;20507;-65
2023/07/15 11:46:47;;;;;;;17.27;3.85;;;32.60;79.80;;;;;;4938395;29;20436;-64
2023/07/15 11:49:20;;;;;;;16.60;4.00;;;32.50;80.20;;;;;;4937621;29;20528;-64
2023/07/15 11:51:47;;;;;;;15.75;3.90;;;32.50;80.70;;;;;;4938057;29;20068;-65
2023/07/15 11:54:17;;;;;;;14.25;4.18;;;32.40;81.90;;;;;;4934270;29;20104;-65
2023/07/15 11:56:45;;;;;;;8.77;3.83;;;32.40;81.80;;;;;;4936080;29;20690;-65
2023/07/15 11:59:24;;;;;;;9.23;3.55;;;32.40;82.20;;;;;;4935367;29;20062;-65
2023/07/15 12:01:51;;;;;;;12.52;3.55;;;32.40;82.70;;;;;;4935069;29;20068;-65
2023/07/15 12:04:21;;;;;;;14.63;3.90;;;32.40;83.10;;;;;;4936118;28;20067;-66
2023/07/15 12:06:48;;;;;;;15.50;3.63;;;32.50;83.30;;;;;;4935929;29;20087;-65
2023/07/15 12:09:16;;;;;;;18.77;3.65;;;32.30;83.90;;;;;;4940068;29;21531;-64
2023/07/15 12:11:43;;;;;;;9.90;3.80;;;32.40;84.30;;;;;;4933321;29;20532;-65
2023/07/15 12:14:10;;;;;;;16.70;3.88;;;32.40;84.70;;;;;;4937398;29;20155;-67
2023/07/15 12:16:39;;;;;;;12.65;3.85;;;32.30;84.90;;;;;;4936723;29;20116;-66
2023/07/15 12:19:07;;;;;;;14.98;3.78;;;32.40;85.30;;;;;;4934638;29;20072;-64
2023/07/15 12:21:34;;;;;;;10.70;3.50;;;32.30;85.60;;;;;;4940177;29;20063;-66
2023/07/15 12:24:00;;;;;;;18.67;3.97;;;32.30;85.90;;;;;;4935215;29;20076;-64
2023/07/15 12:26:27;;;;;;;13.70;3.17;;;32.30;85.80;;;;;;4933944;29;20081;-64
2023/07/15 12:28:53;;;;;;;12.23;3.85;;;32.30;86.00;;;;;;4936377;29;20530;-65
2023/07/15 12:31:20;;;;;;;14.38;3.75;;;32.30;86.80;;;;;;4936210;29;20136;-65
2023/07/15 12:33:47;;;;;;;9.45;3.67;;;32.30;86.30;;;;;;4933194;29;20068;-65
2023/07/15 12:36:14;;;;;;;14.02;3.53;;;32.30;86.50;;;;;;4936248;29;20075;-65
2023/07/15 12:38:41;;;;;;;17.08;4.13;;;32.20;86.90;;;;;;4936815;29;20065;-65
2023/07/15 12:41:09;;;;;;;10.50;3.90;;;32.20;87.30;;;;;;4937099;29;20139;-67